sensor_id;sensor_type;location;lat;lon;timestamp;pressure;altitude;pressure_sealevel;temperature
68588;BMP180;55560;52.174;20.996;2023-06-10T00:00:01;100515.20;;;20.80
68588;BMP180;55560;52.174;20.996;2023-06-10T00:02:58;100515.20;;;20.80
68588;BMP180;55560;52.174;20.996;2023-06-10T00:05:27;100521.20;;;20.70
68588;BMP180;55560;52.174;20.996;2023-06-10T00:07:58;100516.40;;;20.70
68588;BMP180;55560;52.174;20.996;2023-06-10T00:10:25;100512.60;;;20.70
68588;BMP180;55560;52.174;20.996;2023-06-10T00:12:54;100510.20;;;20.70
68588;BMP180;55560;52.174;20.996;2023-06-10T00:15:22;100510.80;;;20.64
68588;BMP180;55560;52.174;20.996;2023-06-10T00:17:50;100510.80;;;20.60
68588;BMP180;55560;52.174;20.996;2023-06-10T00:20:21;100507.60;;;20.60
68588;BMP180;55560;52.174;20.996;2023-06-10T00:22:53;100505.60;;;20.60
68588;BMP180;55560;52.174;20.996;2023-06-10T00:25:21;100503.40;;;20.60
68588;BMP180;55560;52.174;20.996;2023-06-10T00:27:48;100499.40;;;20.56
68588;BMP180;55560;52.174;20.996;2023-06-10T00:30:16;100505.00;;;20.50
68588;BMP180;55560;52.174;20.996;2023-06-10T00:32:45;100502.80;;;20.50
68588;BMP180;55560;52.174;20.996;2023-06-10T00:35:13;100508.80;;;20.40
68588;BMP180;55560;52.174;20.996;2023-06-10T00:37:40;100502.80;;;20.40
68588;BMP180;55560;52.174;20.996;2023-06-10T00:40:10;100504.80;;;20.40
68588;BMP180;55560;52.174;20.996;2023-06-10T00:42:38;100506.60;;;20.40
68588;BMP180;55560;52.174;20.996;2023-06-10T00:45:06;100501.60;;;20.30
68588;BMP180;55560;52.174;20.996;2023-06-10T00:47:36;100503.80;;;20.30
68588;BMP180;55560;52.174;20.996;2023-06-10T00:50:05;100500.80;;;20.20
68588;BMP180;55560;52.174;20.996;2023-06-10T00:52:34;100504.20;;;20.20
68588;BMP180;55560;52.174;20.996;2023-06-10T00:55:03;100506.40;;;20.10
68588;BMP180;55560;52.174;20.996;2023-06-10T00:57:31;100508.00;;;20.10
68588;BMP180;55560;52.174;20.996;2023-06-10T01:00:00;100507.80;;;20.00
68588;BMP180;55560;52.174;20.996;2023-06-10T01:02:28;100509.40;;;20.00
68588;BMP180;55560;52.174;20.996;2023-06-10T01:04:59;100513.20;;;19.90
68588;BMP180;55560;52.174;20.996;2023-06-10T01:08:01;100506.80;;;19.90
68588;BMP180;55560;52.174;20.996;2023-06-10T01:10:42;100510.20;;;19.80
68588;BMP180;55560;52.174;20.996;2023-06-10T01:13:11;100511.40;;;19.80
68588;BMP180;55560;52.174;20.996;2023-06-10T01:15:39;100511.80;;;19.70
68588;BMP180;55560;52.174;20.996;2023-06-10T01:18:09;100517.60;;;19.70
68588;BMP180;55560;52.174;20.996;2023-06-10T01:20:38;100511.60;;;19.60
68588;BMP180;55560;52.174;20.996;2023-06-10T01:23:10;100512.00;;;19.60
68588;BMP180;55560;52.174;20.996;2023-06-10T01:25:49;100511.40;;;19.50
68588;BMP180;55560;52.174;20.996;2023-06-10T01:34:03;100517.60;;;19.40
68588;BMP180;55560;52.174;20.996;2023-06-10T01:36:34;100528.20;;;19.30
68588;BMP180;55560;52.174;20.996;2023-06-10T01:39:04;100528.40;;;19.30
68588;BMP180;55560;52.174;20.996;2023-06-10T01:41:34;100524.00;;;19.22
68588;BMP180;55560;52.174;20.996;2023-06-10T01:44:02;100529.20;;;19.20
68588;BMP180;55560;52.174;20.996;2023-06-10T01:46:30;100530.20;;;19.20
68588;BMP180;55560;52.174;20.996;2023-06-10T01:48:58;100525.20;;;19.14
68588;BMP180;55560;52.174;20.996;2023-06-10T01:51:26;100527.80;;;19.10
68588;BMP180;55560;52.174;20.996;2023-06-10T01:53:54;100529.40;;;19.10
68588;BMP180;55560;52.174;20.996;2023-06-10T01:56:22;100523.20;;;19.10
68588;BMP180;55560;52.174;20.996;2023-06-10T01:58:49;100526.00;;;19.00
68588;BMP180;55560;52.174;20.996;2023-06-10T02:01:18;100525.40;;;19.00
68588;BMP180;55560;52.174;20.996;2023-06-10T02:03:46;100528.20;;;19.00
68588;BMP180;55560;52.174;20.996;2023-06-10T02:06:14;100530.00;;;19.00
68588;BMP180;55560;52.174;20.996;2023-06-10T02:08:42;100535.00;;;18.90
68588;BMP180;55560;52.174;20.996;2023-06-10T02:11:10;100529.00;;;18.90
68588;BMP180;55560;52.174;20.996;2023-06-10T02:13:38;100536.80;;;18.88
68588;BMP180;55560;52.174;20.996;2023-06-10T02:16:06;100540.80;;;18.80
68588;BMP180;55560;52.174;20.996;2023-06-10T02:18:34;100539.40;;;18.80
68588;BMP180;55560;52.174;20.996;2023-06-10T02:21:02;100536.60;;;18.78
68588;BMP180;55560;52.174;20.996;2023-06-10T02:23:31;100539.00;;;18.70
68588;BMP180;55560;52.174;20.996;2023-06-10T02:25:59;100541.20;;;18.70
68588;BMP180;55560;52.174;20.996;2023-06-10T02:28:27;100539.40;;;18.70
68588;BMP180;55560;52.174;20.996;2023-06-10T02:30:57;100547.00;;;18.70
68588;BMP180;55560;52.174;20.996;2023-06-10T02:33:26;100549.20;;;18.60
68588;BMP180;55560;52.174;20.996;2023-06-10T02:35:55;100551.20;;;18.60
68588;BMP180;55560;52.174;20.996;2023-06-10T02:38:24;100547.60;;;18.60
68588;BMP180;55560;52.174;20.996;2023-06-10T02:40:52;100554.40;;;18.50
68588;BMP180;55560;52.174;20.996;2023-06-10T02:43:19;100552.40;;;18.50
68588;BMP180;55560;52.174;20.996;2023-06-10T02:45:48;100554.80;;;18.50
68588;BMP180;55560;52.174;20.996;2023-06-10T02:48:16;100555.00;;;18.50
68588;BMP180;55560;52.174;20.996;2023-06-10T02:50:44;100559.60;;;18.40
68588;BMP180;55560;52.174;20.996;2023-06-10T02:53:35;100565.80;;;18.40
68588;BMP180;55560;52.174;20.996;2023-06-10T02:56:08;100568.00;;;18.40
68588;BMP180;55560;52.174;20.996;2023-06-10T02:58:36;100569.40;;;18.40
68588;BMP180;55560;52.174;20.996;2023-06-10T03:01:05;100568.00;;;18.30
68588;BMP180;55560;52.174;20.996;2023-06-10T03:03:40;100571.80;;;18.30
68588;BMP180;55560;52.174;20.996;2023-06-10T03:06:13;100570.00;;;18.30
68588;BMP180;55560;52.174;20.996;2023-06-10T03:08:41;100570.60;;;18.30
68588;BMP180;55560;52.174;20.996;2023-06-10T03:11:12;100574.60;;;18.30
68588;BMP180;55560;52.174;20.996;2023-06-10T03:13:41;100572.00;;;18.30
68588;BMP180;55560;52.174;20.996;2023-06-10T03:16:10;100573.40;;;18.30
68588;BMP180;55560;52.174;20.996;2023-06-10T03:18:40;100576.80;;;18.30
68588;BMP180;55560;52.174;20.996;2023-06-10T03:21:08;100580.40;;;18.30
68588;BMP180;55560;52.174;20.996;2023-06-10T03:23:37;100579.80;;;18.30
68588;BMP180;55560;52.174;20.996;2023-06-10T03:26:06;100578.20;;;18.30
68588;BMP180;55560;52.174;20.996;2023-06-10T03:28:34;100584.60;;;18.30
68588;BMP180;55560;52.174;20.996;2023-06-10T03:31:02;100579.20;;;18.30
68588;BMP180;55560;52.174;20.996;2023-06-10T03:33:31;100587.00;;;18.30
68588;BMP180;55560;52.174;20.996;2023-06-10T03:36:00;100587.20;;;18.30
68588;BMP180;55560;52.174;20.996;2023-06-10T03:38:28;100587.80;;;18.30
68588;BMP180;55560;52.174;20.996;2023-06-10T03:40:56;100598.40;;;18.30
68588;BMP180;55560;52.174;20.996;2023-06-10T03:43:24;100598.20;;;18.32
68588;BMP180;55560;52.174;20.996;2023-06-10T03:45:52;100604.20;;;18.30
68588;BMP180;55560;52.174;20.996;2023-06-10T03:48:20;100610.40;;;18.30
68588;BMP180;55560;52.174;20.996;2023-06-10T03:50:50;100612.20;;;18.30
68588;BMP180;55560;52.174;20.996;2023-06-10T03:53:20;100614.60;;;18.30
68588;BMP180;55560;52.174;20.996;2023-06-10T03:55:48;100612.20;;;18.30
68588;BMP180;55560;52.174;20.996;2023-06-10T03:58:17;100609.20;;;18.30
68588;BMP180;55560;52.174;20.996;2023-06-10T04:00:45;100608.40;;;18.30
68588;BMP180;55560;52.174;20.996;2023-06-10T04:03:14;100606.00;;;18.30
68588;BMP180;55560;52.174;20.996;2023-06-10T04:05:49;100605.80;;;18.30
68588;BMP180;55560;52.174;20.996;2023-06-10T04:08:18;100608.20;;;18.30
68588;BMP180;55560;52.174;20.996;2023-06-10T04:10:46;100611.40;;;18.30
68588;BMP180;55560;52.174;20.996;2023-06-10T04:13:13;100614.80;;;18.40
68588;BMP180;55560;52.174;20.996;2023-06-10T04:15:49;100613.00;;;18.40
68588;BMP180;55560;52.174;20.996;2023-06-10T04:18:17;100616.40;;;18.50
68588;BMP180;55560;52.174;20.996;2023-06-10T04:20:45;100619.40;;;18.50
68588;BMP180;55560;52.174;20.996;2023-06-10T04:23:13;100622.00;;;18.60
68588;BMP180;55560;52.174;20.996;2023-06-10T04:25:43;100622.60;;;18.70
68588;BMP180;55560;52.174;20.996;2023-06-10T04:28:11;100625.20;;;18.70
68588;BMP180;55560;52.174;20.996;2023-06-10T04:30:39;100622.20;;;18.80
68588;BMP180;55560;52.174;20.996;2023-06-10T04:33:07;100618.60;;;18.88
68588;BMP180;55560;52.174;20.996;2023-06-10T04:35:37;100613.40;;;19.06
68588;BMP180;55560;52.174;20.996;2023-06-10T04:38:06;100604.00;;;19.80
68588;BMP180;55560;52.174;20.996;2023-06-10T04:40:34;100604.00;;;20.50
68588;BMP180;55560;52.174;20.996;2023-06-10T04:43:03;100606.60;;;21.52
68588;BMP180;55560;52.174;20.996;2023-06-10T04:45:31;100615.80;;;21.92
68588;BMP180;55560;52.174;20.996;2023-06-10T04:47:59;100621.60;;;22.20
68588;BMP180;55560;52.174;20.996;2023-06-10T04:50:27;100619.60;;;22.26
68588;BMP180;55560;52.174;20.996;2023-06-10T04:52:55;100628.80;;;22.16
68588;BMP180;55560;52.174;20.996;2023-06-10T04:55:26;100629.60;;;21.88
68588;BMP180;55560;52.174;20.996;2023-06-10T04:57:54;100623.60;;;21.80
68588;BMP180;55560;52.174;20.996;2023-06-10T05:00:22;100624.60;;;22.00
68588;BMP180;55560;52.174;20.996;2023-06-10T05:02:50;100632.00;;;22.30
68588;BMP180;55560;52.174;20.996;2023-06-10T05:05:19;100628.00;;;22.66
68588;BMP180;55560;52.174;20.996;2023-06-10T05:07:47;100629.40;;;22.88
68588;BMP180;55560;52.174;20.996;2023-06-10T05:10:15;100641.00;;;23.00
68588;BMP180;55560;52.174;20.996;2023-06-10T05:12:43;100641.60;;;22.80
68588;BMP180;55560;52.174;20.996;2023-06-10T05:15:11;100637.80;;;22.60
68588;BMP180;55560;52.174;20.996;2023-06-10T05:17:40;100640.40;;;22.42
68588;BMP180;55560;52.174;20.996;2023-06-10T05:20:08;100642.60;;;22.20
68588;BMP180;55560;52.174;20.996;2023-06-10T05:22:36;100639.20;;;22.00
68588;BMP180;55560;52.174;20.996;2023-06-10T05:25:04;100642.40;;;21.80
68588;BMP180;55560;52.174;20.996;2023-06-10T05:27:33;100648.20;;;21.80
68588;BMP180;55560;52.174;20.996;2023-06-10T05:30:02;100641.80;;;21.68
68588;BMP180;55560;52.174;20.996;2023-06-10T05:32:31;100642.60;;;21.70
68588;BMP180;55560;52.174;20.996;2023-06-10T05:34:59;100646.40;;;21.90
68588;BMP180;55560;52.174;20.996;2023-06-10T05:37:28;100638.40;;;22.20
68588;BMP180;55560;52.174;20.996;2023-06-10T05:39:56;100633.20;;;22.60
68588;BMP180;55560;52.174;20.996;2023-06-10T05:42:24;100638.40;;;22.90
68588;BMP180;55560;52.174;20.996;2023-06-10T05:44:52;100641.00;;;23.10
68588;BMP180;55560;52.174;20.996;2023-06-10T05:47:20;100640.60;;;23.36
68588;BMP180;55560;52.174;20.996;2023-06-10T05:49:48;100642.00;;;23.50
68588;BMP180;55560;52.174;20.996;2023-06-10T05:52:18;100641.80;;;23.70
68588;BMP180;55560;52.174;20.996;2023-06-10T05:54:46;100644.00;;;23.80
68588;BMP180;55560;52.174;20.996;2023-06-10T05:57:13;100646.60;;;23.90
68588;BMP180;55560;52.174;20.996;2023-06-10T05:59:41;100644.40;;;24.24
68588;BMP180;55560;52.174;20.996;2023-06-10T06:02:09;100645.80;;;24.70
68588;BMP180;55560;52.174;20.996;2023-06-10T06:04:37;100641.60;;;24.90
68588;BMP180;55560;52.174;20.996;2023-06-10T06:07:05;100641.60;;;25.12
68588;BMP180;55560;52.174;20.996;2023-06-10T06:09:33;100645.60;;;24.88
68588;BMP180;55560;52.174;20.996;2023-06-10T06:12:03;100648.60;;;24.42
68588;BMP180;55560;52.174;20.996;2023-06-10T06:14:31;100653.20;;;24.06
68588;BMP180;55560;52.174;20.996;2023-06-10T06:16:59;100653.60;;;23.88
68588;BMP180;55560;52.174;20.996;2023-06-10T06:19:28;100656.60;;;23.70
68588;BMP180;55560;52.174;20.996;2023-06-10T06:21:55;100653.40;;;23.58
68588;BMP180;55560;52.174;20.996;2023-06-10T06:24:23;100652.20;;;23.34
68588;BMP180;55560;52.174;20.996;2023-06-10T06:26:51;100652.40;;;23.20
68588;BMP180;55560;52.174;20.996;2023-06-10T06:29:19;100649.20;;;23.10
68588;BMP180;55560;52.174;20.996;2023-06-10T06:31:47;100655.40;;;23.10
68588;BMP180;55560;52.174;20.996;2023-06-10T06:34:15;100650.00;;;23.00
68588;BMP180;55560;52.174;20.996;2023-06-10T06:36:43;100653.20;;;23.00
68588;BMP180;55560;52.174;20.996;2023-06-10T06:39:11;100654.00;;;22.90
68588;BMP180;55560;52.174;20.996;2023-06-10T06:41:39;100657.40;;;22.80
68588;BMP180;55560;52.174;20.996;2023-06-10T06:44:07;100652.80;;;22.90
68588;BMP180;55560;52.174;20.996;2023-06-10T06:46:39;100656.20;;;22.80
68588;BMP180;55560;52.174;20.996;2023-06-10T06:49:07;100655.80;;;22.90
68588;BMP180;55560;52.174;20.996;2023-06-10T06:51:34;100655.00;;;22.90
68588;BMP180;55560;52.174;20.996;2023-06-10T06:54:03;100657.40;;;22.98
68588;BMP180;55560;52.174;20.996;2023-06-10T06:56:33;100666.20;;;23.00
68588;BMP180;55560;52.174;20.996;2023-06-10T06:59:01;100666.20;;;23.10
68588;BMP180;55560;52.174;20.996;2023-06-10T07:01:28;100666.20;;;23.10
68588;BMP180;55560;52.174;20.996;2023-06-10T07:03:56;100667.80;;;23.20
68588;BMP180;55560;52.174;20.996;2023-06-10T07:06:24;100677.40;;;23.30
68588;BMP180;55560;52.174;20.996;2023-06-10T07:08:53;100671.20;;;23.30
68588;BMP180;55560;52.174;20.996;2023-06-10T07:11:21;100676.00;;;23.36
68588;BMP180;55560;52.174;20.996;2023-06-10T07:13:49;100676.20;;;23.30
68588;BMP180;55560;52.174;20.996;2023-06-10T07:16:17;100676.40;;;23.30
68588;BMP180;55560;52.174;20.996;2023-06-10T07:18:45;100676.20;;;23.30
68588;BMP180;55560;52.174;20.996;2023-06-10T07:21:13;100673.20;;;23.30
68588;BMP180;55560;52.174;20.996;2023-06-10T07:23:44;100675.00;;;23.30
68588;BMP180;55560;52.174;20.996;2023-06-10T07:26:12;100680.20;;;23.30
68588;BMP180;55560;52.174;20.996;2023-06-10T07:28:41;100682.00;;;23.30
68588;BMP180;55560;52.174;20.996;2023-06-10T07:31:09;100678.40;;;23.30
68588;BMP180;55560;52.174;20.996;2023-06-10T07:33:38;100670.00;;;23.30
68588;BMP180;55560;52.174;20.996;2023-06-10T07:36:07;100675.00;;;23.40
68588;BMP180;55560;52.174;20.996;2023-06-10T07:38:35;100669.60;;;23.50
68588;BMP180;55560;52.174;20.996;2023-06-10T07:41:03;100671.80;;;23.56
68588;BMP180;55560;52.174;20.996;2023-06-10T07:43:31;100674.40;;;23.60
68588;BMP180;55560;52.174;20.996;2023-06-10T07:45:59;100677.20;;;23.64
68588;BMP180;55560;52.174;20.996;2023-06-10T07:48:27;100676.40;;;23.70
68588;BMP180;55560;52.174;20.996;2023-06-10T07:50:55;100680.60;;;23.70
68588;BMP180;55560;52.174;20.996;2023-06-10T07:53:23;100679.60;;;23.80
68588;BMP180;55560;52.174;20.996;2023-06-10T07:55:51;100677.80;;;23.80
68588;BMP180;55560;52.174;20.996;2023-06-10T07:58:19;100683.60;;;23.90
68588;BMP180;55560;52.174;20.996;2023-06-10T08:00:47;100687.60;;;23.90
68588;BMP180;55560;52.174;20.996;2023-06-10T08:03:15;100689.40;;;23.90
68588;BMP180;55560;52.174;20.996;2023-06-10T08:05:43;100690.60;;;23.90
68588;BMP180;55560;52.174;20.996;2023-06-10T08:08:12;100686.60;;;23.90
68588;BMP180;55560;52.174;20.996;2023-06-10T08:10:40;100684.40;;;23.90
68588;BMP180;55560;52.174;20.996;2023-06-10T08:13:08;100690.00;;;24.00
68588;BMP180;55560;52.174;20.996;2023-06-10T08:15:36;100686.40;;;24.10
68588;BMP180;55560;52.174;20.996;2023-06-10T08:18:04;100688.00;;;24.20
68588;BMP180;55560;52.174;20.996;2023-06-10T08:20:32;100689.20;;;24.20
68588;BMP180;55560;52.174;20.996;2023-06-10T08:23:00;100686.00;;;24.20
68588;BMP180;55560;52.174;20.996;2023-06-10T08:25:28;100693.60;;;24.20
68588;BMP180;55560;52.174;20.996;2023-06-10T08:27:55;100696.00;;;24.20
68588;BMP180;55560;52.174;20.996;2023-06-10T08:30:25;100692.00;;;24.22
68588;BMP180;55560;52.174;20.996;2023-06-10T08:32:53;100691.40;;;24.30
68588;BMP180;55560;52.174;20.996;2023-06-10T08:35:21;100688.00;;;24.30
68588;BMP180;55560;52.174;20.996;2023-06-10T08:37:49;100683.20;;;24.40
68588;BMP180;55560;52.174;20.996;2023-06-10T08:40:17;100685.80;;;24.40
68588;BMP180;55560;52.174;20.996;2023-06-10T08:42:54;100695.40;;;24.40
68588;BMP180;55560;52.174;20.996;2023-06-10T08:45:27;100692.60;;;24.40
68588;BMP180;55560;52.174;20.996;2023-06-10T08:47:57;100695.40;;;24.40
68588;BMP180;55560;52.174;20.996;2023-06-10T08:50:26;100704.00;;;24.48
68588;BMP180;55560;52.174;20.996;2023-06-10T08:52:58;100700.80;;;24.50
68588;BMP180;55560;52.174;20.996;2023-06-10T08:55:42;100704.80;;;24.40
68588;BMP180;55560;52.174;20.996;2023-06-10T08:58:10;100707.00;;;24.40
68588;BMP180;55560;52.174;20.996;2023-06-10T09:00:38;100697.40;;;24.40
68588;BMP180;55560;52.174;20.996;2023-06-10T09:03:08;100699.80;;;24.30
68588;BMP180;55560;52.174;20.996;2023-06-10T09:05:37;100705.00;;;24.24
68588;BMP180;55560;52.174;20.996;2023-06-10T09:08:06;100702.40;;;24.16
68588;BMP180;55560;52.174;20.996;2023-06-10T09:10:35;100696.20;;;24.12
68588;BMP180;55560;52.174;20.996;2023-06-10T09:13:03;100700.60;;;24.20
68588;BMP180;55560;52.174;20.996;2023-06-10T09:15:31;100703.40;;;24.20
68588;BMP180;55560;52.174;20.996;2023-06-10T09:17:59;100700.00;;;24.20
68588;BMP180;55560;52.174;20.996;2023-06-10T09:20:27;100710.40;;;24.20
68588;BMP180;55560;52.174;20.996;2023-06-10T09:22:55;100710.80;;;24.20
68588;BMP180;55560;52.174;20.996;2023-06-10T09:25:38;100711.80;;;24.28
68588;BMP180;55560;52.174;20.996;2023-06-10T09:28:14;100711.00;;;24.30
68588;BMP180;55560;52.174;20.996;2023-06-10T09:30:42;100711.80;;;24.30
68588;BMP180;55560;52.174;20.996;2023-06-10T09:33:13;100709.20;;;24.30
68588;BMP180;55560;52.174;20.996;2023-06-10T09:35:47;100712.60;;;24.30
68588;BMP180;55560;52.174;20.996;2023-06-10T09:38:20;100706.00;;;24.30
68588;BMP180;55560;52.174;20.996;2023-06-10T09:40:52;100715.60;;;24.40
68588;BMP180;55560;52.174;20.996;2023-06-10T09:43:22;100715.00;;;24.50
68588;BMP180;55560;52.174;20.996;2023-06-10T09:45:55;100721.40;;;24.60
68588;BMP180;55560;52.174;20.996;2023-06-10T09:48:23;100714.80;;;24.60
68588;BMP180;55560;52.174;20.996;2023-06-10T09:50:51;100715.60;;;24.60
68588;BMP180;55560;52.174;20.996;2023-06-10T09:53:20;100718.00;;;24.60
68588;BMP180;55560;52.174;20.996;2023-06-10T09:55:48;100723.40;;;24.66
68588;BMP180;55560;52.174;20.996;2023-06-10T09:58:16;100732.60;;;24.60
68588;BMP180;55560;52.174;20.996;2023-06-10T10:00:48;100725.80;;;24.56
68588;BMP180;55560;52.174;20.996;2023-06-10T10:03:23;100723.40;;;24.50
68588;BMP180;55560;52.174;20.996;2023-06-10T10:05:59;100721.20;;;24.44
68588;BMP180;55560;52.174;20.996;2023-06-10T10:08:28;100717.60;;;24.50
68588;BMP180;55560;52.174;20.996;2023-06-10T10:10:57;100713.20;;;24.50
68588;BMP180;55560;52.174;20.996;2023-06-10T10:13:26;100712.00;;;24.40
68588;BMP180;55560;52.174;20.996;2023-06-10T10:16:00;100703.60;;;24.40
68588;BMP180;55560;52.174;20.996;2023-06-10T10:18:31;100701.20;;;24.40
68588;BMP180;55560;52.174;20.996;2023-06-10T10:21:05;100705.20;;;24.44
68588;BMP180;55560;52.174;20.996;2023-06-10T10:24:38;100705.00;;;24.50
68588;BMP180;55560;52.174;20.996;2023-06-10T10:26:40;100716.20;;;24.70
68588;BMP180;55560;52.174;20.996;2023-06-10T10:29:17;100711.20;;;24.78
68588;BMP180;55560;52.174;20.996;2023-06-10T10:31:50;100703.00;;;24.70
68588;BMP180;55560;52.174;20.996;2023-06-10T10:34:24;100697.80;;;24.80
68588;BMP180;55560;52.174;20.996;2023-06-10T10:36:55;100701.20;;;24.80
68588;BMP180;55560;52.174;20.996;2023-06-10T10:39:23;100703.40;;;24.90
68588;BMP180;55560;52.174;20.996;2023-06-10T10:41:52;100702.80;;;24.98
68588;BMP180;55560;52.174;20.996;2023-06-10T10:44:20;100713.20;;;25.00
68588;BMP180;55560;52.174;20.996;2023-06-10T10:46:50;100697.40;;;25.04
68588;BMP180;55560;52.174;20.996;2023-06-10T10:49:19;100699.40;;;25.14
68588;BMP180;55560;52.174;20.996;2023-06-10T10:51:59;100700.80;;;25.30
68588;BMP180;55560;52.174;20.996;2023-06-10T10:54:35;100709.00;;;25.40
68588;BMP180;55560;52.174;20.996;2023-06-10T10:57:22;100704.60;;;25.50
68588;BMP180;55560;52.174;20.996;2023-06-10T10:59:55;100710.00;;;25.50
68588;BMP180;55560;52.174;20.996;2023-06-10T11:02:44;100700.40;;;25.46
68588;BMP180;55560;52.174;20.996;2023-06-10T11:05:15;100701.60;;;25.48
68588;BMP180;55560;52.174;20.996;2023-06-10T11:07:55;100698.20;;;25.50
68588;BMP180;55560;52.174;20.996;2023-06-10T11:10:37;100700.80;;;25.50
68588;BMP180;55560;52.174;20.996;2023-06-10T11:13:13;100698.60;;;25.50
68588;BMP180;55560;52.174;20.996;2023-06-10T11:15:50;100696.20;;;25.60
68588;BMP180;55560;52.174;20.996;2023-06-10T11:18:30;100694.80;;;25.60
68588;BMP180;55560;52.174;20.996;2023-06-10T11:21:04;100692.20;;;25.60
68588;BMP180;55560;52.174;20.996;2023-06-10T11:23:38;100690.20;;;25.60
68588;BMP180;55560;52.174;20.996;2023-06-10T11:31:32;100695.00;;;25.70
68588;BMP180;55560;52.174;20.996;2023-06-10T11:34:03;100689.60;;;25.70
68588;BMP180;55560;52.174;20.996;2023-06-10T11:36:43;100685.00;;;25.80
68588;BMP180;55560;52.174;20.996;2023-06-10T11:39:13;100690.80;;;25.90
68588;BMP180;55560;52.174;20.996;2023-06-10T11:41:41;100689.40;;;26.00
68588;BMP180;55560;52.174;20.996;2023-06-10T11:44:13;100690.00;;;26.10
68588;BMP180;55560;52.174;20.996;2023-06-10T11:46:49;100691.40;;;26.20
68588;BMP180;55560;52.174;20.996;2023-06-10T11:49:20;100694.40;;;26.30
68588;BMP180;55560;52.174;20.996;2023-06-10T11:51:48;100693.60;;;26.40
68588;BMP180;55560;52.174;20.996;2023-06-10T11:54:19;100693.80;;;26.42
68588;BMP180;55560;52.174;20.996;2023-06-10T11:56:47;100689.40;;;26.50
68588;BMP180;55560;52.174;20.996;2023-06-10T11:59:16;100684.60;;;26.60
68588;BMP180;55560;52.174;20.996;2023-06-10T12:01:45;100686.80;;;26.60
68588;BMP180;55560;52.174;20.996;2023-06-10T12:04:15;100681.00;;;26.70
68588;BMP180;55560;52.174;20.996;2023-06-10T12:06:52;100677.40;;;26.70
68588;BMP180;55560;52.174;20.996;2023-06-10T12:09:23;100689.40;;;26.80
68588;BMP180;55560;52.174;20.996;2023-06-10T12:12:02;100682.60;;;26.76
68588;BMP180;55560;52.174;20.996;2023-06-10T12:14:59;100687.20;;;26.80
68588;BMP180;55560;52.174;20.996;2023-06-10T12:20:01;100682.00;;;26.90
68588;BMP180;55560;52.174;20.996;2023-06-10T12:22:43;100686.40;;;26.90
68588;BMP180;55560;52.174;20.996;2023-06-10T12:25:11;100682.20;;;27.00
68588;BMP180;55560;52.174;20.996;2023-06-10T12:27:50;100677.20;;;27.00
68588;BMP180;55560;52.174;20.996;2023-06-10T12:30:24;100678.40;;;27.10
68588;BMP180;55560;52.174;20.996;2023-06-10T12:32:54;100678.00;;;27.30
68588;BMP180;55560;52.174;20.996;2023-06-10T12:35:27;100677.00;;;27.40
68588;BMP180;55560;52.174;20.996;2023-06-10T12:38:04;100668.80;;;27.40
68588;BMP180;55560;52.174;20.996;2023-06-10T12:40:38;100671.00;;;27.40
68588;BMP180;55560;52.174;20.996;2023-06-10T12:43:08;100664.80;;;27.40
68588;BMP180;55560;52.174;20.996;2023-06-10T12:45:38;100662.60;;;27.50
68588;BMP180;55560;52.174;20.996;2023-06-10T12:48:12;100664.40;;;27.52
68588;BMP180;55560;52.174;20.996;2023-06-10T12:50:54;100660.60;;;27.60
68588;BMP180;55560;52.174;20.996;2023-06-10T12:53:24;100657.80;;;27.80
68588;BMP180;55560;52.174;20.996;2023-06-10T12:55:52;100651.40;;;27.94
68588;BMP180;55560;52.174;20.996;2023-06-10T12:58:21;100656.60;;;28.10
68588;BMP180;55560;52.174;20.996;2023-06-10T13:00:50;100654.00;;;28.10
68588;BMP180;55560;52.174;20.996;2023-06-10T13:03:20;100655.40;;;28.10
68588;BMP180;55560;52.174;20.996;2023-06-10T13:05:49;100655.80;;;28.30
68588;BMP180;55560;52.174;20.996;2023-06-10T13:08:17;100653.80;;;28.50
68588;BMP180;55560;52.174;20.996;2023-06-10T13:10:45;100646.60;;;28.70
68588;BMP180;55560;52.174;20.996;2023-06-10T13:13:12;100646.40;;;28.94
68588;BMP180;55560;52.174;20.996;2023-06-10T13:15:41;100640.80;;;29.10
68588;BMP180;55560;52.174;20.996;2023-06-10T13:18:11;100642.80;;;29.18
68588;BMP180;55560;52.174;20.996;2023-06-10T13:20:39;100645.00;;;29.10
68588;BMP180;55560;52.174;20.996;2023-06-10T13:23:07;100647.80;;;29.04
68588;BMP180;55560;52.174;20.996;2023-06-10T13:25:34;100640.60;;;28.76
68588;BMP180;55560;52.174;20.996;2023-06-10T13:28:02;100636.60;;;28.64
68588;BMP180;55560;52.174;20.996;2023-06-10T13:30:30;100637.40;;;28.80
68588;BMP180;55560;52.174;20.996;2023-06-10T13:32:58;100635.20;;;29.00
68588;BMP180;55560;52.174;20.996;2023-06-10T13:35:26;100635.60;;;29.10
68588;BMP180;55560;52.174;20.996;2023-06-10T13:37:54;100633.80;;;29.10
68588;BMP180;55560;52.174;20.996;2023-06-10T13:40:22;100638.60;;;29.08
68588;BMP180;55560;52.174;20.996;2023-06-10T13:42:50;100637.60;;;28.90
68588;BMP180;55560;52.174;20.996;2023-06-10T13:45:20;100639.00;;;28.76
68588;BMP180;55560;52.174;20.996;2023-06-10T13:47:48;100639.20;;;28.60
68588;BMP180;55560;52.174;20.996;2023-06-10T13:50:16;100642.20;;;28.30
68588;BMP180;55560;52.174;20.996;2023-06-10T13:52:44;100633.80;;;28.26
68588;BMP180;55560;52.174;20.996;2023-06-10T13:55:11;100638.40;;;28.78
68588;BMP180;55560;52.174;20.996;2023-06-10T13:57:40;100641.80;;;29.54
68588;BMP180;55560;52.174;20.996;2023-06-10T14:00:08;100651.40;;;29.60
68588;BMP180;55560;52.174;20.996;2023-06-10T14:02:38;100651.40;;;30.56
68588;BMP180;55560;52.174;20.996;2023-06-10T14:05:07;100660.00;;;33.08
68588;BMP180;55560;52.174;20.996;2023-06-10T14:07:36;100657.00;;;35.14
68588;BMP180;55560;52.174;20.996;2023-06-10T14:10:06;100658.00;;;37.24
68588;BMP180;55560;52.174;20.996;2023-06-10T14:12:35;100663.00;;;39.16